sensor_id;sensor_type;location;lat;lon;timestamp;pressure;altitude;pressure_sealevel;temperature;humidity
16190;BME280;41754;51.498;7.540;2023-08-06T00:01:44;99348.34;;;14.39;97.10
16190;BME280;41754;51.498;7.540;2023-08-06T00:04:12;99348.88;;;14.42;96.83
16190;BME280;41754;51.498;7.540;2023-08-06T00:06:40;99351.72;;;14.31;96.82
16190;BME280;41754;51.498;7.540;2023-08-06T00:09:09;99346.91;;;14.26;96.50
16190;BME280;41754;51.498;7.540;2023-08-06T00:11:37;99345.22;;;14.25;96.06
16190;BME280;41754;51.498;7.540;2023-08-06T00:14:05;99352.03;;;14.28;95.92
16190;BME280;41754;51.498;7.540;2023-08-06T00:16:33;99338.09;;;14.26;95.79
16190;BME280;41754;51.498;7.540;2023-08-06T00:19:01;99336.31;;;14.26;95.51
16190;BME280;41754;51.498;7.540;2023-08-06T00:21:29;99332.13;;;14.24;95.31
16190;BME280;41754;51.498;7.540;2023-08-06T00:23:57;99339.50;;;14.30;95.48
16190;BME280;41754;51.498;7.540;2023-08-06T00:26:26;99327.38;;;14.27;95.37
16190;BME280;41754;51.498;7.540;2023-08-06T00:28:54;99324.97;;;14.34;95.34
16190;BME280;41754;51.498;7.540;2023-08-06T00:31:22;99328.09;;;14.29;95.19
16190;BME280;41754;51.498;7.540;2023-08-06T00:33:50;99330.16;;;14.26;94.84
16190;BME280;41754;51.498;7.540;2023-08-06T00:36:17;99323.22;;;14.25;94.93
16190;BME280;41754;51.498;7.540;2023-08-06T00:38:45;99326.03;;;14.23;94.96
16190;BME280;41754;51.498;7.540;2023-08-06T00:41:13;99324.88;;;14.26;94.82
16190;BME280;41754;51.498;7.540;2023-08-06T00:43:44;99328.66;;;14.23;94.85
16190;BME280;41754;51.498;7.540;2023-08-06T00:46:12;99321.94;;;14.29;94.76
16190;BME280;41754;51.498;7.540;2023-08-06T00:48:40;99320.69;;;14.33;94.91
16190;BME280;41754;51.498;7.540;2023-08-06T00:51:10;99316.66;;;14.29;94.71
16190;BME280;41754;51.498;7.540;2023-08-06T00:53:39;99311.50;;;14.27;94.54
16190;BME280;41754;51.498;7.540;2023-08-06T00:56:07;99315.00;;;14.28;95.03
16190;BME280;41754;51.498;7.540;2023-08-06T00:58:37;99309.00;;;14.26;94.83
16190;BME280;41754;51.498;7.540;2023-08-06T01:01:07;99310.69;;;14.27;94.73
16190;BME280;41754;51.498;7.540;2023-08-06T01:03:35;99307.78;;;14.20;95.03
16190;BME280;41754;51.498;7.540;2023-08-06T01:06:03;99299.72;;;14.22;94.54
16190;BME280;41754;51.498;7.540;2023-08-06T01:08:40;99296.38;;;14.20;94.43
16190;BME280;41754;51.498;7.540;2023-08-06T01:11:19;99287.78;;;14.18;94.32
16190;BME280;41754;51.498;7.540;2023-08-06T01:13:55;99286.09;;;14.17;94.33
16190;BME280;41754;51.498;7.540;2023-08-06T01:16:28;99286.19;;;14.25;94.02
16190;BME280;41754;51.498;7.540;2023-08-06T01:18:58;99273.41;;;14.20;93.75
16190;BME280;41754;51.498;7.540;2023-08-06T01:21:27;99275.00;;;14.31;93.65
16190;BME280;41754;51.498;7.540;2023-08-06T01:23:55;99265.41;;;14.30;93.53
16190;BME280;41754;51.498;7.540;2023-08-06T01:26:27;99269.50;;;14.24;93.19
16190;BME280;41754;51.498;7.540;2023-08-06T01:29:02;99270.75;;;14.20;93.36
16190;BME280;41754;51.498;7.540;2023-08-06T01:31:37;99270.63;;;14.22;93.31
16190;BME280;41754;51.498;7.540;2023-08-06T01:34:07;99271.59;;;14.21;93.30
16190;BME280;41754;51.498;7.540;2023-08-06T01:36:38;99270.63;;;14.22;93.18
16190;BME280;41754;51.498;7.540;2023-08-06T01:39:06;99264.03;;;14.26;93.24
16190;BME280;41754;51.498;7.540;2023-08-06T01:41:34;99262.38;;;14.25;92.90
16190;BME280;41754;51.498;7.540;2023-08-06T01:44:03;99265.03;;;14.25;92.95
16190;BME280;41754;51.498;7.540;2023-08-06T01:46:31;99264.22;;;14.24;92.88
16190;BME280;41754;51.498;7.540;2023-08-06T01:48:58;99267.81;;;14.23;93.01
16190;BME280;41754;51.498;7.540;2023-08-06T01:51:26;99268.06;;;14.30;92.85
16190;BME280;41754;51.498;7.540;2023-08-06T01:53:56;99264.88;;;14.26;92.64
16190;BME280;41754;51.498;7.540;2023-08-06T01:56:23;99267.38;;;14.28;92.67
16190;BME280;41754;51.498;7.540;2023-08-06T01:58:51;99266.00;;;14.24;92.76
16190;BME280;41754;51.498;7.540;2023-08-06T02:01:19;99266.28;;;14.21;92.97
16190;BME280;41754;51.498;7.540;2023-08-06T02:03:47;99273.84;;;14.16;93.32
16190;BME280;41754;51.498;7.540;2023-08-06T02:06:15;99263.56;;;14.13;93.70
16190;BME280;41754;51.498;7.540;2023-08-06T02:08:44;99260.22;;;14.10;93.97
16190;BME280;41754;51.498;7.540;2023-08-06T02:11:16;99257.16;;;14.15;94.00
16190;BME280;41754;51.498;7.540;2023-08-06T02:13:45;99259.94;;;14.14;94.17
16190;BME280;41754;51.498;7.540;2023-08-06T02:16:17;99261.22;;;14.09;94.64
16190;BME280;41754;51.498;7.540;2023-08-06T02:18:46;99260.22;;;14.10;94.04
16190;BME280;41754;51.498;7.540;2023-08-06T02:21:13;99262.50;;;14.05;94.71
16190;BME280;41754;51.498;7.540;2023-08-06T02:23:41;99255.00;;;14.01;95.12
16190;BME280;41754;51.498;7.540;2023-08-06T02:26:09;99259.56;;;14.08;94.87
16190;BME280;41754;51.498;7.540;2023-08-06T02:28:39;99260.38;;;14.09;94.78
16190;BME280;41754;51.498;7.540;2023-08-06T02:31:07;99253.44;;;14.08;95.15
16190;BME280;41754;51.498;7.540;2023-08-06T02:33:36;99237.88;;;14.05;95.65
16190;BME280;41754;51.498;7.540;2023-08-06T02:36:04;99234.16;;;14.16;95.68
16190;BME280;41754;51.498;7.540;2023-08-06T02:38:33;99235.84;;;14.17;95.70
16190;BME280;41754;51.498;7.540;2023-08-06T02:41:02;99222.16;;;14.03;95.97
16190;BME280;41754;51.498;7.540;2023-08-06T02:43:31;99220.47;;;14.02;95.99
16190;BME280;41754;51.498;7.540;2023-08-06T02:46:01;99221.75;;;13.98;95.89
16190;BME280;41754;51.498;7.540;2023-08-06T02:48:29;99223.88;;;13.95;96.28
16190;BME280;41754;51.498;7.540;2023-08-06T02:50:58;99219.56;;;13.94;96.34
16190;BME280;41754;51.498;7.540;2023-08-06T02:53:28;99215.09;;;13.94;96.21
16190;BME280;41754;51.498;7.540;2023-08-06T02:55:58;99211.63;;;13.94;96.24
16190;BME280;41754;51.498;7.540;2023-08-06T02:58:35;99214.56;;;13.90;96.63
16190;BME280;41754;51.498;7.540;2023-08-06T03:01:33;99200.66;;;13.88;96.76
16190;BME280;41754;51.498;7.540;2023-08-06T03:04:07;99206.38;;;13.84;97.29
16190;BME280;41754;51.498;7.540;2023-08-06T03:06:39;99201.50;;;13.89;97.45
16190;BME280;41754;51.498;7.540;2023-08-06T03:09:08;99203.84;;;13.92;97.40
16190;BME280;41754;51.498;7.540;2023-08-06T03:11:36;99206.47;;;13.92;97.18
16190;BME280;41754;51.498;7.540;2023-08-06T03:14:08;99200.22;;;13.93;97.16
16190;BME280;41754;51.498;7.540;2023-08-06T03:16:38;99195.91;;;13.92;97.15
16190;BME280;41754;51.498;7.540;2023-08-06T03:19:07;99201.09;;;13.84;97.21
16190;BME280;41754;51.498;7.540;2023-08-06T03:21:35;99190.81;;;13.81;97.24
16190;BME280;41754;51.498;7.540;2023-08-06T03:24:04;99189.50;;;13.67;97.33
16190;BME280;41754;51.498;7.540;2023-08-06T03:26:33;99191.81;;;13.52;97.86
16190;BME280;41754;51.498;7.540;2023-08-06T03:29:01;99190.03;;;13.52;98.16
16190;BME280;41754;51.498;7.540;2023-08-06T03:31:32;99193.50;;;13.53;97.87
16190;BME280;41754;51.498;7.540;2023-08-06T03:34:03;99184.50;;;13.46;97.95
16190;BME280;41754;51.498;7.540;2023-08-06T03:36:31;99191.56;;;13.45;98.31
16190;BME280;41754;51.498;7.540;2023-08-06T03:39:00;99189.31;;;13.50;98.22
16190;BME280;41754;51.498;7.540;2023-08-06T03:41:30;99198.78;;;13.53;97.97
16190;BME280;41754;51.498;7.540;2023-08-06T03:43:58;99194.06;;;13.47;98.41
16190;BME280;41754;51.498;7.540;2023-08-06T03:46:27;99183.59;;;13.55;98.19
16190;BME280;41754;51.498;7.540;2023-08-06T03:48:55;99186.28;;;13.45;97.97
16190;BME280;41754;51.498;7.540;2023-08-06T03:51:26;99181.38;;;13.50;98.07
16190;BME280;41754;51.498;7.540;2023-08-06T03:53:55;99174.59;;;13.48;98.37
16190;BME280;41754;51.498;7.540;2023-08-06T03:56:24;99174.59;;;13.48;97.93
16190;BME280;41754;51.498;7.540;2023-08-06T03:58:52;99176.97;;;13.51;97.62
16190;BME280;41754;51.498;7.540;2023-08-06T04:01:20;99173.47;;;13.50;97.15
16190;BME280;41754;51.498;7.540;2023-08-06T04:03:48;99180.41;;;13.51;97.04
16190;BME280;41754;51.498;7.540;2023-08-06T04:06:16;99175.28;;;13.50;97.13
16190;BME280;41754;51.498;7.540;2023-08-06T04:08:45;99170.38;;;13.55;97.05
16190;BME280;41754;51.498;7.540;2023-08-06T04:11:13;99168.72;;;13.54;97.01
16190;BME280;41754;51.498;7.540;2023-08-06T04:13:42;99173.03;;;13.55;96.84
16190;BME280;41754;51.498;7.540;2023-08-06T04:16:10;99164.41;;;13.53;97.01
16190;BME280;41754;51.498;7.540;2023-08-06T04:18:41;99179.00;;;13.57;97.23
16190;BME280;41754;51.498;7.540;2023-08-06T04:21:08;99170.09;;;13.58;97.13
16190;BME280;41754;51.498;7.540;2023-08-06T04:23:36;99171.53;;;13.52;97.06
16190;BME280;41754;51.498;7.540;2023-08-06T04:26:07;99172.63;;;13.50;97.28
16190;BME280;41754;51.498;7.540;2023-08-06T04:28:37;99171.34;;;13.54;97.20
16190;BME280;41754;51.498;7.540;2023-08-06T04:31:05;99175.28;;;13.50;97.48
16190;BME280;41754;51.498;7.540;2023-08-06T04:33:33;99172.34;;;13.53;97.14
16190;BME280;41754;51.498;7.540;2023-08-06T04:36:06;99170.69;;;13.52;97.28
16190;BME280;41754;51.498;7.540;2023-08-06T04:38:34;99174.16;;;13.52;97.35
16190;BME280;41754;51.498;7.540;2023-08-06T04:41:02;99178.50;;;13.44;97.63
16190;BME280;41754;51.498;7.540;2023-08-06T04:43:32;99177.53;;;13.45;97.52
16190;BME280;41754;51.498;7.540;2023-08-06T04:46:00;99166.72;;;13.38;97.79
16190;BME280;41754;51.498;7.540;2023-08-06T04:48:28;99174.63;;;13.38;97.87
16190;BME280;41754;51.498;7.540;2023-08-06T04:50:56;99169.50;;;13.36;97.96
16190;BME280;41754;51.498;7.540;2023-08-06T04:53:24;99164.75;;;13.40;98.19
16190;BME280;41754;51.498;7.540;2023-08-06T04:55:52;99158.06;;;13.46;98.09
16190;BME280;41754;51.498;7.540;2023-08-06T04:58:20;99162.47;;;13.55;97.89
16190;BME280;41754;51.498;7.540;2023-08-06T05:00:49;99165.88;;;13.65;97.69
16190;BME280;41754;51.498;7.540;2023-08-06T05:03:17;99177.22;;;13.76;97.60
16190;BME280;41754;51.498;7.540;2023-08-06T05:05:46;99173.03;;;13.83;97.68
16190;BME280;41754;51.498;7.540;2023-08-06T05:08:14;99182.41;;;13.95;97.52
16190;BME280;41754;51.498;7.540;2023-08-06T05:10:43;99183.75;;;13.99;97.31
16190;BME280;41754;51.498;7.540;2023-08-06T05:13:11;99191.84;;;13.98;97.23
16190;BME280;41754;51.498;7.540;2023-08-06T05:15:40;99190.41;;;14.03;97.23
16190;BME280;41754;51.498;7.540;2023-08-06T05:18:11;99196.03;;;14.18;96.79
16190;BME280;41754;51.498;7.540;2023-08-06T05:20:40;99197.75;;;14.27;96.57
16190;BME280;41754;51.498;7.540;2023-08-06T05:23:08;99200.78;;;14.33;96.59
16190;BME280;41754;51.498;7.540;2023-08-06T05:25:37;99193.38;;;14.18;96.25
16190;BME280;41754;51.498;7.540;2023-08-06T05:28:05;99197.53;;;14.21;96.30
16190;BME280;41754;51.498;7.540;2023-08-06T05:30:32;99194.56;;;14.24;95.53
16190;BME280;41754;51.498;7.540;2023-08-06T05:33:03;99195.25;;;14.26;95.38
16190;BME280;41754;51.498;7.540;2023-08-06T05:35:32;99199.66;;;14.35;95.20
16190;BME280;41754;51.498;7.540;2023-08-06T05:38:01;99195.19;;;14.54;95.32
16190;BME280;41754;51.498;7.540;2023-08-06T05:40:28;99192.31;;;14.65;95.32
16190;BME280;41754;51.498;7.540;2023-08-06T05:42:56;99196.94;;;14.63;95.49
16190;BME280;41754;51.498;7.540;2023-08-06T05:45:24;99194.88;;;14.57;95.27
16190;BME280;41754;51.498;7.540;2023-08-06T05:47:52;99192.22;;;14.57;95.58
16190;BME280;41754;51.498;7.540;2023-08-06T05:50:24;99188.91;;;14.55;95.73
16190;BME280;41754;51.498;7.540;2023-08-06T05:52:53;99186.75;;;14.76;95.61
16190;BME280;41754;51.498;7.540;2023-08-06T05:55:21;99181.63;;;15.01;95.06
16190;BME280;41754;51.498;7.540;2023-08-06T05:57:49;99190.75;;;15.33;94.34
16190;BME280;41754;51.498;7.540;2023-08-06T06:00:19;99173.78;;;15.17;90.42
16190;BME280;41754;51.498;7.540;2023-08-06T06:02:47;99179.38;;;15.40;90.20
16190;BME280;41754;51.498;7.540;2023-08-06T06:05:15;99181.94;;;15.58;88.83
16190;BME280;41754;51.498;7.540;2023-08-06T06:07:43;99183.81;;;15.74;87.87
16190;BME280;41754;51.498;7.540;2023-08-06T06:10:12;99191.34;;;15.87;87.89
16190;BME280;41754;51.498;7.540;2023-08-06T06:12:40;99189.69;;;15.86;87.36
16190;BME280;41754;51.498;7.540;2023-08-06T06:15:09;99191.56;;;15.68;86.91
16190;BME280;41754;51.498;7.540;2023-08-06T06:17:37;99200.09;;;15.80;86.71
16190;BME280;41754;51.498;7.540;2023-08-06T06:20:06;99191.34;;;15.87;86.92
16190;BME280;41754;51.498;7.540;2023-08-06T06:22:34;99193.72;;;16.15;86.24
16190;BME280;41754;51.498;7.540;2023-08-06T06:25:02;99195.91;;;16.28;86.06
16190;BME280;41754;51.498;7.540;2023-08-06T06:27:32;99200.34;;;16.03;84.70
16190;BME280;41754;51.498;7.540;2023-08-06T06:30:00;99201.81;;;15.97;84.94
16190;BME280;41754;51.498;7.540;2023-08-06T06:32:27;99199.63;;;15.84;83.13
16190;BME280;41754;51.498;7.540;2023-08-06T06:34:55;99196.69;;;16.04;83.78
16190;BME280;41754;51.498;7.540;2023-08-06T06:37:23;99194.38;;;16.17;82.91
16190;BME280;41754;51.498;7.540;2023-08-06T06:39:51;99206.00;;;16.16;84.27
16190;BME280;41754;51.498;7.540;2023-08-06T06:42:19;99199.69;;;16.25;83.73
16190;BME280;41754;51.498;7.540;2023-08-06T06:44:52;99203.72;;;16.38;82.47
16190;BME280;41754;51.498;7.540;2023-08-06T06:47:19;99204.88;;;16.51;83.93
16190;BME280;41754;51.498;7.540;2023-08-06T06:49:47;99203.69;;;16.62;83.39
16190;BME280;41754;51.498;7.540;2023-08-06T06:52:15;99205.38;;;16.72;81.62
16190;BME280;41754;51.498;7.540;2023-08-06T06:54:43;99211.34;;;16.49;80.05
16190;BME280;41754;51.498;7.540;2023-08-06T06:57:11;99204.69;;;16.37;81.16
16190;BME280;41754;51.498;7.540;2023-08-06T06:59:39;99206.69;;;16.26;82.90
16190;BME280;41754;51.498;7.540;2023-08-06T07:02:08;99202.53;;;16.40;80.97
16190;BME280;41754;51.498;7.540;2023-08-06T07:04:36;99202.38;;;16.66;80.10
16190;BME280;41754;51.498;7.540;2023-08-06T07:07:04;99205.72;;;16.85;78.75
16190;BME280;41754;51.498;7.540;2023-08-06T07:09:32;99204.03;;;16.84;79.08
16190;BME280;41754;51.498;7.540;2023-08-06T07:12:00;99200.09;;;16.88;78.54
16190;BME280;41754;51.498;7.540;2023-08-06T07:14:28;99205.00;;;17.16;78.58
16190;BME280;41754;51.498;7.540;2023-08-06T07:16:56;99200.63;;;17.39;77.63
16190;BME280;41754;51.498;7.540;2023-08-06T07:19:25;99202.63;;;17.37;77.57
16190;BME280;41754;51.498;7.540;2023-08-06T07:21:53;99199.66;;;17.32;77.08
16190;BME280;41754;51.498;7.540;2023-08-06T07:24:22;99211.22;;;17.48;76.01
16190;BME280;41754;51.498;7.540;2023-08-06T07:26:50;99205.00;;;17.72;75.29
16190;BME280;41754;51.498;7.540;2023-08-06T07:29:19;99208.44;;;17.89;73.44
16190;BME280;41754;51.498;7.540;2023-08-06T07:31:48;99211.44;;;17.77;71.46
16190;BME280;41754;51.498;7.540;2023-08-06T07:34:18;99217.09;;;17.74;71.21
16190;BME280;41754;51.498;7.540;2023-08-06T07:36:47;99229.06;;;18.41;70.74
16190;BME280;41754;51.498;7.540;2023-08-06T07:39:15;99231.91;;;18.63;71.50
16190;BME280;41754;51.498;7.540;2023-08-06T07:41:43;99231.63;;;18.81;71.50
16190;BME280;41754;51.498;7.540;2023-08-06T07:44:12;99236.06;;;18.88;71.01
16190;BME280;41754;51.498;7.540;2023-08-06T07:46:40;99234.06;;;18.90;72.02
16190;BME280;41754;51.498;7.540;2023-08-06T07:49:09;99236.31;;;18.79;70.38
16190;BME280;41754;51.498;7.540;2023-08-06T07:51:37;99229.56;;;18.45;71.29
16190;BME280;41754;51.498;7.540;2023-08-06T07:54:07;99235.56;;;18.15;71.71
16190;BME280;41754;51.498;7.540;2023-08-06T07:56:35;99235.41;;;18.17;71.23
16190;BME280;41754;51.498;7.540;2023-08-06T07:59:03;99235.34;;;18.25;71.97
16190;BME280;41754;51.498;7.540;2023-08-06T08:01:31;99234.41;;;18.41;71.27
16190;BME280;41754;51.498;7.540;2023-08-06T08:03:59;99233.47;;;18.34;74.25
16190;BME280;41754;51.498;7.540;2023-08-06T08:06:27;99226.91;;;17.90;75.44
16190;BME280;41754;51.498;7.540;2023-08-06T08:08:55;99229.03;;;17.95;76.09
16190;BME280;41754;51.498;7.540;2023-08-06T08:11:25;99231.88;;;17.93;75.93
16190;BME280;41754;51.498;7.540;2023-08-06T08:13:53;99233.31;;;18.04;72.78
16190;BME280;41754;51.498;7.540;2023-08-06T08:16:21;99232.69;;;17.94;72.92
16190;BME280;41754;51.498;7.540;2023-08-06T08:18:49;99232.47;;;18.04;72.75
16190;BME280;41754;51.498;7.540;2023-08-06T08:21:17;99234.72;;;17.92;73.98
16190;BME280;41754;51.498;7.540;2023-08-06T08:23:45;99233.38;;;17.79;73.90
16190;BME280;41754;51.498;7.540;2023-08-06T08:26:13;99227.78;;;17.66;75.84
16190;BME280;41754;51.498;7.540;2023-08-06T08:28:42;99237.19;;;17.37;77.56
16190;BME280;41754;51.498;7.540;2023-08-06T08:31:10;99231.19;;;17.52;76.62
16190;BME280;41754;51.498;7.540;2023-08-06T08:33:39;99230.31;;;17.59;77.06
16190;BME280;41754;51.498;7.540;2023-08-06T08:36:06;99227.88;;;17.41;79.44
16190;BME280;41754;51.498;7.540;2023-08-06T08:38:36;99218.22;;;17.49;77.63
16190;BME280;41754;51.498;7.540;2023-08-06T08:41:04;99223.47;;;17.65;77.64
16190;BME280;41754;51.498;7.540;2023-08-06T08:43:32;99219.16;;;17.64;77.20
16190;BME280;41754;51.498;7.540;2023-08-06T08:46:02;99228.78;;;17.73;77.54
16190;BME280;41754;51.498;7.540;2023-08-06T08:48:31;99231.88;;;17.85;76.85
16190;BME280;41754;51.498;7.540;2023-08-06T08:50:59;99224.03;;;18.00;75.77
16190;BME280;41754;51.498;7.540;2023-08-06T08:53:28;99230.00;;;18.02;77.35
16190;BME280;41754;51.498;7.540;2023-08-06T08:55:56;99230.38;;;18.22;77.05
16190;BME280;41754;51.498;7.540;2023-08-06T08:58:25;99230.84;;;18.26;77.39
16190;BME280;41754;51.498;7.540;2023-08-06T09:00:53;99230.69;;;18.50;76.70
16190;BME280;41754;51.498;7.540;2023-08-06T09:03:23;99242.88;;;18.68;75.63
16190;BME280;41754;51.498;7.540;2023-08-06T09:05:53;99232.53;;;19.11;73.55
16190;BME280;41754;51.498;7.540;2023-08-06T09:08:27;99233.44;;;19.03;74.72
16190;BME280;41754;51.498;7.540;2023-08-06T09:10:59;99241.38;;;18.88;74.31
16190;BME280;41754;51.498;7.540;2023-08-06T09:13:29;99246.69;;;19.12;69.78
16190;BME280;41754;51.498;7.540;2023-08-06T09:15:57;99245.63;;;19.36;69.43
16190;BME280;41754;51.498;7.540;2023-08-06T09:18:27;99246.69;;;19.12;67.16
16190;BME280;41754;51.498;7.540;2023-08-06T09:20:57;99247.09;;;19.53;67.12
16190;BME280;41754;51.498;7.540;2023-08-06T09:23:28;99240.44;;;19.64;65.25
16190;BME280;41754;51.498;7.540;2023-08-06T09:25:57;99243.34;;;19.62;65.18
16190;BME280;41754;51.498;7.540;2023-08-06T09:28:36;99241.66;;;19.61;62.97
16190;BME280;41754;51.498;7.540;2023-08-06T09:31:04;99239.09;;;19.83;64.76
16190;BME280;41754;51.498;7.540;2023-08-06T09:33:36;99253.25;;;19.39;65.84
16190;BME280;41754;51.498;7.540;2023-08-06T09:36:10;99246.75;;;19.86;65.63
16190;BME280;41754;51.498;7.540;2023-08-06T09:38:39;99250.56;;;20.13;63.81
16190;BME280;41754;51.498;7.540;2023-08-06T09:41:07;99243.34;;;20.14;65.00
16190;BME280;41754;51.498;7.540;2023-08-06T09:43:42;99249.78;;;19.83;63.21
16190;BME280;41754;51.498;7.540;2023-08-06T09:46:13;99246.47;;;19.66;64.92
16190;BME280;41754;51.498;7.540;2023-08-06T09:48:48;99249.69;;;19.91;65.10
16190;BME280;41754;51.498;7.540;2023-08-06T09:51:16;99261.25;;;19.69;63.81
16190;BME280;41754;51.498;7.540;2023-08-06T09:53:45;99262.72;;;19.41;64.08
16190;BME280;41754;51.498;7.540;2023-08-06T09:56:15;99266.28;;;19.04;66.97
16190;BME280;41754;51.498;7.540;2023-08-06T09:58:45;99264.50;;;18.96;67.63
16190;BME280;41754;51.498;7.540;2023-08-06T10:01:16;99264.72;;;18.86;69.14
16190;BME280;41754;51.498;7.540;2023-08-06T10:03:48;99266.03;;;18.67;69.67
16190;BME280;41754;51.498;7.540;2023-08-06T10:06:17;99264.97;;;18.53;70.47
16190;BME280;41754;51.498;7.540;2023-08-06T10:08:45;99269.63;;;18.28;71.59
16190;BME280;41754;51.498;7.540;2023-08-06T10:11:15;99265.69;;;18.16;73.04
16190;BME280;41754;51.498;7.540;2023-08-06T10:13:44;99270.06;;;18.40;73.59
16190;BME280;41754;51.498;7.540;2023-08-06T10:16:12;99262.19;;;18.15;74.96
16190;BME280;41754;51.498;7.540;2023-08-06T10:18:42;99261.44;;;17.98;76.37
16190;BME280;41754;51.498;7.540;2023-08-06T10:21:12;99262.19;;;18.15;75.41
16190;BME280;41754;51.498;7.540;2023-08-06T10:23:40;99262.31;;;18.22;75.99
16190;BME280;41754;51.498;7.540;2023-08-06T10:26:08;99266.19;;;18.11;77.25
16190;BME280;41754;51.498;7.540;2023-08-06T10:28:38;99260.13;;;18.26;75.84
16190;BME280;41754;51.498;7.540;2023-08-06T10:31:06;99263.94;;;18.54;75.27
16190;BME280;41754;51.498;7.540;2023-08-06T10:33:41;99261.41;;;18.61;75.50
16190;BME280;41754;51.498;7.540;2023-08-06T10:36:11;99257.38;;;18.42;74.42
16190;BME280;41754;51.498;7.540;2023-08-06T10:38:44;99255.94;;;18.54;75.41
16190;BME280;41754;51.498;7.540;2023-08-06T10:41:15;99254.75;;;18.80;74.80
16190;BME280;41754;51.498;7.540;2023-08-06T10:43:43;99258.94;;;18.83;72.55
16190;BME280;41754;51.498;7.540;2023-08-06T10:46:23;99260.59;;;18.84;72.08
16190;BME280;41754;51.498;7.540;2023-08-06T10:48:51;99258.81;;;18.99;72.67
16190;BME280;41754;51.498;7.540;2023-08-06T10:51:20;99258.00;;;19.28;70.88
16190;BME280;41754;51.498;7.540;2023-08-06T10:53:49;99245.63;;;19.80;68.32
16190;BME280;41754;51.498;7.540;2023-08-06T10:56:18;99250.47;;;20.07;66.46
16190;BME280;41754;51.498;7.540;2023-08-06T10:58:49;99254.53;;;20.02;64.71
16190;BME280;41754;51.498;7.540;2023-08-06T11:01:18;99249.03;;;20.26;65.02
16190;BME280;41754;51.498;7.540;2023-08-06T11:03:47;99259.66;;;20.19;63.56
16190;BME280;41754;51.498;7.540;2023-08-06T11:06:17;99262.94;;;19.99;65.60
16190;BME280;41754;51.498;7.540;2023-08-06T11:08:51;99262.66;;;19.94;62.75
16190;BME280;41754;51.498;7.540;2023-08-06T11:11:22;99267.22;;;19.71;64.83
16190;BME280;41754;51.498;7.540;2023-08-06T11:13:51;99256.31;;;19.51;65.88
16190;BME280;41754;51.498;7.540;2023-08-06T11:16:20;99272.63;;;19.18;68.07
16190;BME280;41754;51.498;7.540;2023-08-06T11:18:50;99266.84;;;19.14;68.78
16190;BME280;41754;51.498;7.540;2023-08-06T11:21:20;99267.69;;;19.44;66.38
16190;BME280;41754;51.498;7.540;2023-08-06T11:23:49;99266.53;;;19.77;66.48
16190;BME280;41754;51.498;7.540;2023-08-06T11:26:18;99265.78;;;19.83;64.44
16190;BME280;41754;51.498;7.540;2023-08-06T11:28:47;99266.63;;;19.83;63.52
16190;BME280;41754;51.498;7.540;2023-08-06T11:31:21;99268.91;;;20.01;62.29
16190;BME280;41754;51.498;7.540;2023-08-06T11:33:50;99269.97;;;20.22;62.03
16190;BME280;41754;51.498;7.540;2023-08-06T11:36:28;99269.47;;;20.33;61.18
16190;BME280;41754;51.498;7.540;2023-08-06T11:38:58;99269.72;;;20.02;63.12
16190;BME280;41754;51.498;7.540;2023-08-06T11:41:27;99268.44;;;20.13;61.80
16190;BME280;41754;51.498;7.540;2023-08-06T11:43:55;99264.66;;;19.92;63.38
16190;BME280;41754;51.498;7.540;2023-08-06T11:46:23;99265.59;;;19.99;65.20
16190;BME280;41754;51.498;7.540;2023-08-06T11:48:52;99260.53;;;20.05;64.71
16190;BME280;41754;51.498;7.540;2023-08-06T11:51:22;99260.00;;;20.16;63.87
16190;BME280;41754;51.498;7.540;2023-08-06T11:53:51;99258.34;;;20.30;62.32
16190;BME280;41754;51.498;7.540;2023-08-06T11:56:20;99264.06;;;20.63;62.18
16190;BME280;41754;51.498;7.540;2023-08-06T11:58:48;99265.44;;;20.81;62.07
16190;BME280;41754;51.498;7.540;2023-08-06T12:01:16;99263.28;;;20.69;62.74
16190;BME280;41754;51.498;7.540;2023-08-06T12:03:44;99265.28;;;21.10;60.01
16190;BME280;41754;51.498;7.540;2023-08-06T12:06:12;99264.56;;;20.95;58.17
16190;BME280;41754;51.498;7.540;2023-08-06T12:08:40;99264.44;;;20.82;59.29
16190;BME280;41754;51.498;7.540;2023-08-06T12:11:09;99266.44;;;21.01;57.37
16190;BME280;41754;51.498;7.540;2023-08-06T12:13:38;99269.28;;;21.49;56.78
16190;BME280;41754;51.498;7.540;2023-08-06T12:16:06;99267.94;;;22.15;55.30
16190;BME280;41754;51.498;7.540;2023-08-06T12:18:34;99267.31;;;21.65;56.22
16190;BME280;41754;51.498;7.540;2023-08-06T12:21:02;99269.59;;;20.83;56.12
16190;BME280;41754;51.498;7.540;2023-08-06T12:23:30;99274.41;;;20.15;58.56
16190;BME280;41754;51.498;7.540;2023-08-06T12:25:59;99269.63;;;19.65;60.63
16190;BME280;41754;51.498;7.540;2023-08-06T12:28:27;99277.25;;;19.24;63.07
16190;BME280;41754;51.498;7.540;2023-08-06T12:30:56;99274.50;;;19.47;63.05
16190;BME280;41754;51.498;7.540;2023-08-06T12:33:24;99280.03;;;19.31;62.59
16190;BME280;41754;51.498;7.540;2023-08-06T12:35:52;99277.91;;;18.80;63.40
16190;BME280;41754;51.498;7.540;2023-08-06T12:38:21;99287.91;;;18.86;64.31
16190;BME280;41754;51.498;7.540;2023-08-06T12:40:49;99289.25;;;18.59;65.80
16190;BME280;41754;51.498;7.540;2023-08-06T12:43:17;99292.38;;;18.31;67.98
16190;BME280;41754;51.498;7.540;2023-08-06T12:45:45;99307.63;;;17.58;71.92
16190;BME280;41754;51.498;7.540;2023-08-06T12:48:17;99312.97;;;17.25;74.60
16190;BME280;41754;51.498;7.540;2023-08-06T12:50:45;99306.63;;;16.77;76.11
16190;BME280;41754;51.498;7.540;2023-08-06T12:53:13;99315.22;;;16.46;78.82
16190;BME280;41754;51.498;7.540;2023-08-06T12:55:41;99324.59;;;16.16;81.18
16190;BME280;41754;51.498;7.540;2023-08-06T12:58:09;99327.75;;;15.58;84.73
16190;BME280;41754;51.498;7.540;2023-08-06T13:00:37;99329.63;;;15.40;88.31
16190;BME280;41754;51.498;7.540;2023-08-06T13:03:05;99344.91;;;15.28;89.24
16190;BME280;41754;51.498;7.540;2023-08-06T13:05:35;99347.34;;;15.21;89.93
16190;BME280;41754;51.498;7.540;2023-08-06T13:08:03;99344.09;;;15.10;90.37
16190;BME280;41754;51.498;7.540;2023-08-06T13:10:31;99341.47;;;15.10;90.75